Time;durP1;ratioP1;P1;durP2;ratioP2;P2;SDS_P1;SDS_P2;PMS_P1;PMS_P2;Temp;Humidity;BMP_temperature;BMP_pressure;BME280_temperature;BME280_humidity;BME280_pressure;Samples;Min_cycle;Max_cycle;Signal;HPM_P1;HPM_P2
2023/04/03 00:02:32;;;;;;;;;10.50;8.25;;;;;14.42;75.78;100182.03;146603;566;47011;-69
2023/04/03 00:05:28;;;;;;;;;11.00;10.50;;;;;14.47;77.71;100182.16;146611;569;46016;-69
2023/04/03 00:08:35;;;;;;;;;12.25;10.00;;;;;14.51;77.05;100168.38;146604;650;47010;-69
2023/04/03 00:11:42;;;;;;;;;10.00;8.00;;;;;14.53;74.68;100164.97;146606;604;46012;-68
2023/04/03 00:14:38;;;;;;;;;10.75;8.00;;;;;14.55;73.22;100163.31;146614;645;46020;-69
2023/04/03 00:17:33;;;;;;;;;7.75;7.75;;;;;14.57;74.92;100149.41;146611;571;46013;-69
2023/04/03 00:20:37;;;;;;;;;9.50;9.00;;;;;14.58;75.13;100135.50;146617;573;46020;-69
2023/04/03 00:23:34;;;;;;;;;12.50;9.25;;;;;14.54;78.46;100127.59;146613;601;46016;-67
2023/04/03 00:26:30;;;;;;;;;10.25;8.50;;;;;14.50;78.54;100136.16;146603;588;47010;-68
2023/04/03 00:29:30;;;;;;;;;8.00;5.25;;;;;14.45;77.70;100135.16;146611;668;46016;-68
2023/04/03 00:32:25;;;;;;;;;6.50;6.50;;;;;14.43;75.74;100142.06;146616;686;46011;-68
2023/04/03 00:35:21;;;;;;;;;9.25;7.00;;;;;14.42;76.27;100137.69;146612;611;46025;-70
2023/04/03 00:38:14;;;;;;;;;8.00;7.25;;;;;14.44;76.33;100150.78;146612;593;46010;-69
2023/04/03 00:41:21;;;;;;;;;12.25;9.50;;;;;14.49;73.91;100160.50;146607;682;46016;-71
2023/04/03 00:44:54;;;;;;;;;8.00;6.25;;;;;14.49;73.87;100159.63;146615;618;47010;-70
2023/04/03 00:48:00;;;;;;;;;8.50;6.75;;;;;14.48;76.72;100165.66;146632;569;45013;-69
2023/04/03 00:51:13;;;;;;;;;11.75;7.00;;;;;14.45;73.87;100171.66;146633;634;45012;-70
2023/04/03 00:54:19;;;;;;;;;7.00;6.50;;;;;14.47;79.07;100171.72;146634;606;45014;-71
2023/04/03 00:57:35;;;;;;;;;12.75;10.50;;;;;13.81;74.68;100063.06;146630;565;46010;-70
2023/04/03 01:00:47;;;;;;;;;12.00;9.75;;;;;14.44;78.41;100167.31;146633;592;45016;-70
2023/04/03 01:03:55;;;;;;;;;;;;;;;;;;;;;
2023/04/03 01:07:01;;;;;;;;;14.25;11.25;;;;;14.38;76.34;100146.28;146621;605;46016;-70
2023/04/03 01:10:16;;;;;;;;;16.75;14.00;;;;;14.39;74.46;100152.37;146635;621;45010;-71
2023/04/03 01:13:28;;;;;;;;;15.00;12.25;;;;;14.42;73.66;100153.34;146635;682;45012;-70
2023/04/03 01:16:32;;;;;;;;;17.50;15.50;;;;;14.44;76.78;100151.66;146634;579;45020;-72
2023/04/03 01:19:31;;;;;;;;;15.50;14.00;;;;;14.44;79.18;100162.09;146630;604;45016;-71
2023/04/03 01:22:37;;;;;;;;;16.50;15.50;;;;;14.41;77.82;100175.06;146629;582;46020;-71
2023/04/03 01:25:36;;;;;;;;;17.00;13.50;;;;;14.41;79.50;100205.47;146631;579;45017;-70
2023/04/03 01:28:42;;;;;;;;;15.00;14.75;;;;;14.38;78.31;100218.44;146625;582;46020;-70
2023/04/03 01:32:00;;;;;;;;;12.00;10.75;;;;;14.16;76.03;100183.06;146632;664;45921;-72
2023/04/03 01:34:55;;;;;;;;;17.00;12.50;;;;;14.45;78.05;100222.97;146632;577;45010;-70
2023/04/03 01:38:02;;;;;;;;;;;;;;;;;;;;;
2023/04/03 01:41:03;;;;;;;;;14.75;12.75;;;;;14.53;81.49;100244.97;146631;595;46020;-69
2023/04/03 01:44:11;;;;;;;;;;;;;;;;;;;;;
2023/04/03 01:47:16;;;;;;;;;17.50;15.25;;;;;14.33;78.78;100237.44;146604;580;46915;-72
2023/04/03 01:50:15;;;;;;;;;16.00;15.00;;;;;14.30;79.08;100220.84;146605;608;46016;-71
2023/04/03 01:53:20;;;;;;;;;16.50;14.75;;;;;14.27;79.11;100208.59;146607;611;46030;-71
2023/04/03 01:56:23;;;;;;;;;15.25;13.75;;;;;14.25;78.27;100186.78;146605;649;46016;-71
2023/04/03 01:59:19;;;;;;;;;15.75;13.25;;;;;14.25;79.22;100184.19;146604;600;46020;-71
2023/04/03 02:02:24;;;;;;;;;;;;;;;;;;;;;
2023/04/03 02:05:30;;;;;;;;;;;;;;;;;;;;;
2023/04/03 02:08:41;;;;;;;;;14.75;14.00;;;;;14.24;77.37;100176.34;146606;575;46016;-75
2023/04/03 02:11:36;;;;;;;;;17.00;14.50;;;;;14.29;79.00;100159.94;146606;563;47010;-75
2023/04/03 02:14:34;;;;;;;;;17.00;15.00;;;;;14.31;79.07;100145.22;146607;615;46032;-71
2023/04/03 02:17:28;;;;;;;;;16.50;14.50;;;;;14.37;78.93;100131.47;146609;595;46020;-70
2023/04/03 02:20:21;;;;;;;;;15.00;14.00;;;;;14.42;78.87;100132.47;146604;579;46016;-70
2023/04/03 02:23:16;;;;;;;;;12.00;11.75;;;;;13.88;78.47;100022.41;146607;597;46010;-70
2023/04/03 02:26:17;;;;;;;;;15.25;14.25;;;;;14.48;78.19;100110.88;146605;675;46016;-70
2023/04/03 02:29:18;;;;;;;;;18.75;14.00;;;;;14.50;77.48;100115.28;146624;576;46020;-71
2023/04/03 02:32:19;;;;;;;;;15.75;12.50;;;;;14.51;78.70;100118.81;146604;564;46014;-71
2023/04/03 02:35:24;;;;;;;;;15.00;13.50;;;;;14.53;77.33;100112.81;146608;601;46012;-71
2023/04/03 02:38:26;;;;;;;;;17.75;13.50;;;;;14.54;77.35;100111.94;146603;565;47012;-71
2023/04/03 02:41:21;;;;;;;;;18.00;16.75;;;;;14.58;78.66;100109.41;146605;587;47010;-70
2023/04/03 02:44:38;;;;;;;;;18.50;16.75;;;;;14.60;78.33;100108.63;146602;582;47015;-70
2023/04/03 02:47:36;;;;;;;;;16.50;13.75;;;;;14.57;77.88;100103.31;146633;578;45029;-70
2023/04/03 02:50:36;;;;;;;;;12.25;11.25;;;;;14.57;78.23;100110.28;146631;662;45917;-69
2023/04/03 02:53:32;;;;;;;;;17.50;14.75;;;;;14.48;81.00;100114.38;146635;588;45011;-69
2023/04/03 02:56:29;;;;;;;;;13.25;13.00;;;;;14.36;79.44;100114.09;146636;590;45016;-70
2023/04/03 02:59:28;;;;;;;;;13.25;12.50;;;;;14.32;78.92;100130.47;146629;657;45020;-70
2023/04/03 03:02:24;;;;;;;;;13.25;11.50;;;;;14.31;80.23;100128.72;146634;637;45016;-73
2023/04/03 03:05:18;;;;;;;;;15.75;15.75;;;;;14.28;80.96;100098.22;146633;617;45020;-72
2023/04/03 03:08:24;;;;;;;;;12.75;12.75;;;;;14.23;82.13;100099.81;146632;571;45920;-71
2023/04/03 03:11:27;;;;;;;;;16.00;15.00;;;;;14.13;83.40;100123.00;146637;566;45010;-70
2023/04/03 03:14:33;;;;;;;;;16.50;13.50;;;;;14.05;84.18;100136.72;146634;641;46012;-70
2023/04/03 03:17:31;;;;;;;;;10.50;10.00;;;;;14.00;86.30;100129.59;146635;583;45020;-71
2023/04/03 03:20:41;;;;;;;;;9.75;8.25;;;;;13.95;84.19;100118.16;146634;627;46012;-72
2023/04/03 03:23:37;;;;;;;;;7.00;7.00;;;;;13.94;86.75;100119.00;146637;573;45012;-70
2023/04/03 03:26:41;;;;;;;;;9.50;8.25;;;;;13.92;86.20;100113.72;146625;584;45919;-70
2023/04/03 03:29:34;;;;;;;;;11.25;9.50;;;;;13.93;84.94;100114.66;146625;652;46020;-70
2023/04/03 03:32:41;;;;;;;;;11.25;9.75;;;;;13.95;82.97;100116.44;146631;688;46012;-70
2023/04/03 03:35:44;;;;;;;;;12.00;10.50;;;;;13.40;82.05;100003.75;146633;564;45020;-71
2023/04/03 03:38:52;;;;;;;;;11.25;10.25;;;;;14.08;79.94;100109.81;146630;706;46014;-72
2023/04/03 03:41:45;;;;;;;;;11.75;10.00;;;;;14.14;81.11;100104.78;146636;583;45020;-72
2023/04/03 03:44:49;;;;;;;;;10.00;9.50;;;;;13.48;79.79;99977.91;146635;625;45920;-72
2023/04/03 03:47:45;;;;;;;;;16.75;14.75;;;;;14.28;80.92;100086.91;146616;711;46020;-70
2023/04/03 03:50:40;;;;;;;;;11.00;10.50;;;;;14.34;82.31;100081.84;146611;563;46012;-71
2023/04/03 03:53:35;;;;;;;;;12.00;9.00;;;;;14.33;83.31;100080.09;146617;631;46012;-70
2023/04/03 03:56:34;;;;;;;;;15.50;13.25;;;;;14.33;81.71;100087.91;146609;565;47014;-72
2023/04/03 03:59:36;;;;;;;;;14.50;11.00;;;;;14.36;81.14;100089.69;146609;615;46044;-71
2023/04/03 04:02:33;;;;;;;;;12.75;11.75;;;;;14.40;80.97;100089.84;146611;607;46016;-72
2023/04/03 04:05:47;;;;;;;;;14.25;12.00;;;;;14.43;80.85;100099.47;146613;664;47010;-72
2023/04/03 04:08:47;;;;;;;;;16.00;13.25;;;;;14.45;80.56;100095.16;146611;607;46017;-71
2023/04/03 04:11:47;;;;;;;;;11.00;10.75;;;;;14.48;80.20;100105.66;146615;564;46020;-72
2023/04/03 04:14:46;;;;;;;;;14.25;13.75;;;;;14.48;80.51;100100.44;146609;606;46013;-71
2023/04/03 04:18:02;;;;;;;;;12.25;11.50;;;;;14.48;80.25;100103.94;146615;623;46020;-71
2023/04/03 04:20:57;;;;;;;;;13.50;11.50;;;;;14.51;80.66;100103.16;146610;591;46016;-71
2023/04/03 04:23:53;;;;;;;;;13.75;12.50;;;;;14.49;80.41;100081.37;146611;615;47010;-71
2023/04/03 04:27:03;;;;;;;;;;;;;;;;;;;;;
2023/04/03 04:29:59;;;;;;;;;11.75;11.25;;;;;14.41;80.79;100039.41;146609;579;46021;-72
2023/04/03 04:33:03;;;;;;;;;19.25;18.75;;;;;14.38;79.02;100007.16;146610;581;46919;-72
2023/04/03 04:36:11;;;;;;;;;27.50;25.00;;;;;14.36;80.60;99969.72;146614;600;46011;-72
2023/04/03 04:39:15;;;;;;;;;13.00;12.00;;;;;14.35;79.50;99944.50;146607;677;47012;-73
2023/04/03 04:42:12;;;;;;;;;13.25;11.50;;;;;14.31;79.81;99944.44;146614;629;46010;-72
2023/04/03 04:45:18;;;;;;;;;11.25;9.25;;;;;14.33;79.94;99921.88;146612;676;46016;-72
2023/04/03 04:48:12;;;;;;;;;9.50;7.75;;;;;14.35;80.34;99932.34;146616;615;47010;-72
2023/04/03 04:51:07;;;;;;;;;13.00;11.50;;;;;14.33;80.61;99953.19;146610;593;47012;-71
2023/04/03 04:54:10;;;;;;;;;12.50;10.75;;;;;14.32;79.88;99964.44;146606;571;47010;-73
2023/04/03 04:57:11;;;;;;;;;13.50;11.75;;;;;14.32;78.82;99961.81;146606;728;46016;-72
2023/04/03 05:00:17;;;;;;;;;10.75;10.75;;;;;14.34;79.02;99972.31;146601;578;47010;-71
2023/04/03 05:03:14;;;;;;;;;12.00;10.75;;;;;14.33;79.99;99976.66;146601;605;47012;-72
2023/04/03 05:06:19;;;;;;;;;14.50;11.75;;;;;14.38;79.58;99970.66;146610;583;46021;-72
2023/04/03 05:09:20;;;;;;;;;10.00;9.00;;;;;14.41;79.24;99966.38;146601;563;47014;-72
2023/04/03 05:12:15;;;;;;;;;11.25;8.75;;;;;14.44;80.26;99958.62;146613;605;46021;-72
2023/04/03 05:15:14;;;;;;;;;10.75;10.50;;;;;14.47;79.82;99950.00;146611;586;46014;-72
2023/04/03 05:18:24;;;;;;;;;12.75;11.50;;;;;14.51;79.58;99931.00;146609;624;47012;-72
2023/04/03 05:21:23;;;;;;;;;12.75;9.75;;;;;14.53;79.27;99922.34;146606;570;46017;-72
2023/04/03 05:24:21;;;;;;;;;9.75;8.25;;;;;14.58;79.36;99917.25;146616;608;46010;-72
2023/04/03 05:27:23;;;;;;;;;13.50;11.75;;;;;14.59;79.20;99919.00;146610;593;46015;-72
2023/04/03 05:30:21;;;;;;;;;10.50;9.50;;;;;14.60;78.85;99925.09;146604;563;47010;-72
2023/04/03 05:33:13;;;;;;;;;11.00;8.25;;;;;14.62;79.27;99957.34;146611;622;46016;-73
2023/04/03 05:36:20;;;;;;;;;10.50;9.75;;;;;14.60;80.18;99975.56;146615;564;46021;-72
2023/04/03 05:39:13;;;;;;;;;10.50;10.50;;;;;14.60;79.87;99987.72;146611;599;46016;-73
2023/04/03 05:42:17;;;;;;;;;9.25;7.75;;;;;14.61;79.40;99993.00;146609;610;46010;-72
2023/04/03 05:45:16;;;;;;;;;6.25;6.25;;;;;14.64;79.14;99994.75;146613;627;46016;-71
2023/04/03 05:48:16;;;;;;;;;9.00;7.25;;;;;14.67;78.16;99984.41;146619;683;46010;-71
2023/04/03 05:51:37;;;;;;;;;17.75;17.50;;;;;14.75;78.42;99986.34;146612;577;46924;-71
2023/04/03 05:54:46;;;;;;;;;62.00;48.25;;;;;14.82;78.01;99970.81;146610;603;46020;-71
2023/04/03 05:57:54;;;;;;;;;32.75;28.75;;;;;14.90;79.19;99967.53;146606;622;46919;-72
2023/04/03 06:00:50;;;;;;;;;23.75;21.75;;;;;14.98;79.01;99960.75;146603;642;46020;-72
2023/04/03 06:03:55;;;;;;;;;26.25;21.25;;;;;15.09;78.94;99968.81;146607;582;46016;-72
2023/04/03 06:07:05;;;;;;;;;24.50;22.25;;;;;15.21;77.41;99976.03;146610;563;46021;-72
2023/04/03 06:10:17;;;;;;;;;7.75;6.25;;;;;15.32;75.12;99981.44;146608;571;46919;-71
2023/04/03 06:13:37;;;;;;;;;5.00;5.00;;;;;14.61;72.97;99852.09;146616;585;47020;-71
2023/04/03 06:16:43;;;;;;;;;6.50;5.25;;;;;15.41;75.53;100010.37;146612;569;46016;-71
2023/04/03 06:19:44;;;;;;;;;6.00;6.00;;;;;15.42;75.19;100006.91;146615;573;46020;-71
2023/04/03 06:22:36;;;;;;;;;6.25;5.00;;;;;15.41;75.58;100000.78;146609;602;47016;-71
2023/04/03 06:25:29;;;;;;;;;7.00;6.50;;;;;15.42;75.43;99986.91;146618;648;46042;-71
2023/04/03 06:28:29;;;;;;;;;10.00;9.00;;;;;15.47;75.06;99987.84;146612;615;46016;-71
2023/04/03 06:31:26;;;;;;;;;28.00;26.25;;;;;15.51;75.16;99988.78;146601;631;46010;-71
2023/04/03 06:34:18;;;;;;;;;41.75;33.25;;;;;15.51;75.53;99961.78;146605;607;46012;-71
2023/04/03 06:37:22;;;;;;;;;33.00;30.25;;;;;15.60;74.99;99928.00;146610;575;46010;-73
2023/04/03 06:40:38;;;;;;;;;46.00;38.00;;;;;15.79;76.00;99940.56;146606;576;47012;-72
2023/04/03 06:43:38;;;;;;;;;23.75;19.75;;;;;16.05;76.21;99930.56;146601;614;47010;-70
2023/04/03 06:46:41;;;;;;;;;10.25;5.00;;;;;16.34;75.32;99904.84;146606;682;46012;-70
2023/04/03 06:49:46;;;;;;;;;9.50;6.50;;;;;16.49;72.84;99929.50;146614;586;47011;-72
2023/04/03 06:52:57;;;;;;;;;7.00;7.00;;;;;16.58;74.32;99932.25;146611;588;46034;-71
2023/04/03 06:55:52;;;;;;;;;6.00;4.25;;;;;16.62;73.37;99915.72;146614;625;47010;-71
2023/04/03 06:58:56;;;;;;;;;7.00;7.00;;;;;16.67;71.44;99935.00;146610;566;46016;-70
2023/04/03 07:01:50;;;;;;;;;9.50;6.75;;;;;16.62;70.20;99947.13;146608;563;47010;-70
2023/04/03 07:04:52;;;;;;;;;5.00;5.00;;;;;16.59;70.93;99958.41;146612;564;46017;-71
2023/04/03 07:07:47;;;;;;;;;5.00;5.00;;;;;16.49;72.36;99964.38;146616;654;46010;-71
2023/04/03 07:10:50;;;;;;;;;6.50;6.25;;;;;16.39;72.07;99959.88;146610;609;46017;-72
2023/04/03 07:13:49;;;;;;;;;8.75;8.75;;;;;16.35;71.92;99969.41;146618;671;46020;-71
2023/04/03 07:16:42;;;;;;;;;8.25;8.00;;;;;16.34;72.04;99972.00;146609;585;46016;-72
2023/04/03 07:19:46;;;;;;;;;14.00;11.75;;;;;16.31;72.76;99949.28;146615;593;46010;-70
2023/04/03 07:22:45;;;;;;;;;9.75;8.50;;;;;16.26;75.15;99958.81;146612;724;46016;-72
2023/04/03 07:25:51;;;;;;;;;8.00;6.75;;;;;15.38;72.24;99807.44;146616;676;46020;-71
2023/04/03 07:28:52;;;;;;;;;7.50;7.00;;;;;16.21;73.90;99943.88;146610;581;47014;-71
2023/04/03 07:31:44;;;;;;;;;6.50;5.25;;;;;16.25;74.28;99941.34;146609;599;47010;-71
2023/04/03 07:34:51;;;;;;;;;7.25;5.75;;;;;16.40;72.78;99943.31;146611;648;46038;-71
2023/04/03 07:37:48;;;;;;;;;5.75;4.00;;;;;16.55;73.10;99948.78;146615;662;46010;-71
2023/04/03 07:40:45;;;;;;;;;7.75;6.25;;;;;16.66;72.15;99934.94;146611;567;46017;-71
2023/04/03 07:43:38;;;;;;;;;6.75;5.50;;;;;16.75;72.65;99928.12;146617;666;46012;-71
2023/04/03 07:46:40;;;;;;;;;6.00;6.00;;;;;16.74;73.79;99918.50;146609;582;47012;-71
2023/04/03 07:49:57;;;;;;;;;6.25;6.00;;;;;15.79;69.11;99767.16;146611;572;46021;-71
2023/04/03 07:52:57;;;;;;;;;5.25;5.00;;;;;16.63;70.23;99888.66;146613;636;46012;-71
2023/04/03 07:55:59;;;;;;;;;9.00;7.00;;;;;16.57;70.40;99899.06;146615;577;46010;-71
2023/04/03 07:59:02;;;;;;;;;4.25;2.75;;;;;16.49;70.80;99870.19;146611;597;46012;-72
2023/04/03 08:01:58;;;;;;;;;6.00;5.00;;;;;16.48;73.23;99854.44;146610;584;46010;-71
2023/04/03 08:04:50;;;;;;;;;10.25;7.50;;;;;16.47;72.78;99866.66;146611;672;47014;-72
2023/04/03 08:07:51;;;;;;;;;7.00;5.75;;;;;16.45;71.58;99842.22;146617;636;46020;-72
2023/04/03 08:10:46;;;;;;;;;8.25;7.00;;;;;16.47;72.42;99844.84;146613;591;46017;-71
2023/04/03 08:13:59;;;;;;;;;6.00;5.00;;;;;16.47;72.14;99816.06;146615;564;46010;-71
2023/04/03 08:16:56;;;;;;;;;5.00;4.25;;;;;16.50;71.62;99790.81;146612;570;46012;-71
2023/04/03 08:19:53;;;;;;;;;10.50;8.50;;;;;16.55;71.90;99786.50;146615;689;47010;-71
2023/04/03 08:22:47;;;;;;;;;7.75;7.75;;;;;16.57;73.51;99776.97;146611;601;46012;-72
2023/04/03 08:25:51;;;;;;;;;9.25;7.50;;;;;16.53;69.56;99775.16;146616;651;46029;-72
2023/04/03 08:28:55;;;;;;;;;5.50;5.50;;;;;15.86;69.62;99649.66;146610;657;46016;-71
2023/04/03 08:31:51;;;;;;;;;9.75;9.25;;;;;16.43;73.50;99748.87;146611;623;46020;-71
2023/04/03 08:34:54;;;;;;;;;8.25;8.00;;;;;16.36;73.77;99737.44;146613;606;46016;-71
2023/04/03 08:37:52;;;;;;;;;13.75;7.00;;;;;16.29;75.81;99694.66;146616;678;46012;-71
2023/04/03 08:41:12;;;;;;;;;8.25;8.00;;;;;16.24;73.46;99666.69;146609;615;46917;-72
2023/04/03 08:44:35;;;;;;;;;6.00;6.00;;;;;16.12;72.03;99639.50;146617;625;46020;-72
2023/04/03 08:48:15;;;;;;;;;9.25;9.00;;;;;16.03;71.85;99631.56;146613;605;46026;-72
2023/04/03 08:51:21;;;;;;;;;10.50;10.50;;;;;16.01;72.92;99617.59;146614;615;46022;-71
2023/04/03 08:54:28;;;;;;;;;7.00;6.75;;;;;16.02;76.13;99593.22;146708;564;45029;-71
2023/04/03 08:57:44;;;;;;;;;12.00;9.75;;;;;16.16;74.63;99582.87;146627;584;46012;-71
2023/04/03 09:01:13;;;;;;;;;11.00;9.25;;;;;15.76;74.73;99462.22;146625;606;46020;-71
2023/04/03 09:04:19;;;;;;;;;11.00;9.00;;;;;16.31;73.31;99588.28;146619;616;46016;-72
2023/04/03 09:07:40;;;;;;;;;11.75;10.25;;;;;16.26;70.89;99570.75;146625;659;46020;-71
2023/04/03 09:11:37;;;;;;;;;9.75;8.75;;;;;16.11;72.43;99567.16;146615;659;46012;-73
2023/04/03 09:15:08;;;;;;;;;13.75;9.75;;;;;16.23;72.39;99544.59;146627;586;46035;-71
2023/04/03 09:18:32;;;;;;;;;15.50;11.00;;;;;16.24;71.10;99512.34;146621;579;46912;-71
2023/04/03 09:22:04;;;;;;;;;;;;;;;;;;;;;
2023/04/03 09:25:50;;;;;;;;;9.25;7.50;;;;;16.24;69.37;99526.31;146620;602;46016;-71
2023/04/03 09:28:59;;;;;;;;;8.25;8.25;;;;;16.32;70.07;99528.97;146625;594;46020;-73
2023/04/03 09:32:01;;;;;;;;;14.50;12.00;;;;;16.33;72.67;99536.84;146618;579;46914;-71
2023/04/03 09:35:09;;;;;;;;;14.75;10.00;;;;;16.33;71.28;99535.97;146620;581;46010;-74
2023/04/03 09:38:26;;;;;;;;;10.00;10.00;;;;;16.33;69.50;99517.66;146615;570;46028;-74
2023/04/03 09:41:39;;;;;;;;;19.00;16.50;;;;;16.31;71.88;99504.56;146616;579;47020;-75
2023/04/03 09:44:31;;;;;;;;;11.75;9.75;;;;;16.25;74.50;99491.44;146698;566;46022;-76
2023/04/03 09:47:46;;;;;;;;;11.25;11.25;;;;;16.19;72.20;99487.88;146619;563;46033;-74
2023/04/03 09:51:02;;;;;;;;;10.00;10.00;;;;;16.17;71.15;99493.13;146614;569;46020;-75
2023/04/03 09:54:01;;;;;;;;;12.00;10.00;;;;;16.22;72.20;99482.69;146610;578;46017;-72
2023/04/03 09:57:02;;;;;;;;;10.75;9.75;;;;;16.26;72.53;99492.31;146615;653;46010;-72
2023/04/03 10:00:20;;;;;;;;;;;;;;;;;;;;;
2023/04/03 10:03:46;;;;;;;;;9.75;7.50;;;;;15.59;71.63;99343.56;146610;572;46016;-72
2023/04/03 10:06:54;;;;;;;;;5.25;5.25;;;;;14.95;70.66;99253.31;146615;643;46020;-73
2023/04/03 10:10:09;;;;;;;;;6.00;4.00;;;;;16.24;70.57;99462.66;146609;590;46012;-72
2023/04/03 10:13:28;;;;;;;;;7.50;6.00;;;;;16.24;70.87;99517.59;146614;569;47010;-72
2023/04/03 10:16:29;;;;;;;;;9.00;6.50;;;;;16.22;71.18;99522.78;146610;677;47012;-73
2023/04/03 10:19:50;;;;;;;;;5.25;4.25;;;;;16.21;71.17;99528.03;146616;578;46022;-73
2023/04/03 10:23:32;;;;;;;;;8.25;6.50;;;;;15.34;70.26;99399.91;146610;571;46016;-74
2023/04/03 10:26:53;;;;;;;;;6.00;5.25;;;;;16.09;71.77;99544.47;146616;662;46010;-73
2023/04/03 10:30:37;;;;;;;;;5.75;3.75;;;;;15.47;70.51;99447.06;146609;667;46017;-72
2023/04/03 10:34:01;;;;;;;;;5.50;5.50;;;;;15.81;71.65;99523.25;146703;564;46014;-72
2023/04/03 10:38:02;;;;;;;;;7.25;4.25;;;;;16.01;70.61;99554.84;146615;569;46024;-72
2023/04/03 10:41:43;;;;;;;;;4.75;3.00;;;;;15.37;70.17;99452.19;146621;686;46010;-73
2023/04/03 10:45:21;;;;;;;;;4.33;3.00;;;;;16.03;72.05;99557.47;146620;604;46031;-73
2023/04/03 10:49:06;;;;;;;;;6.75;6.50;;;;;15.96;71.67;99551.31;146621;576;46020;-73
2023/04/03 10:52:21;;;;;;;;;12.50;11.50;;;;;15.94;73.62;99526.88;146707;576;47014;-72
2023/04/03 10:56:00;;;;;;;;;14.25;10.25;;;;;15.96;70.74;99512.09;146617;645;46012;-72
2023/04/03 10:59:31;;;;;;;;;13.25;12.00;;;;;16.00;71.67;99526.94;146616;718;46010;-72
2023/04/03 11:03:16;;;;;;;;;;;;;;;;;;;;;
2023/04/03 11:06:26;;;;;;;;;16.00;13.75;;;;;16.01;73.55;99513.03;146617;669;46020;-71
2023/04/03 11:09:47;;;;;;;;;16.50;15.50;;;;;15.96;73.62;99499.03;146612;579;46034;-72
2023/04/03 11:13:21;;;;;;;;;8.00;6.50;;;;;15.94;74.60;99467.63;146614;578;47031;-71
2023/04/03 11:16:24;;;;;;;;;12.00;11.00;;;;;15.94;73.27;99469.34;146617;609;46018;-71
2023/04/03 11:19:57;;;;;;;;;11.25;6.00;;;;;15.90;74.84;99452.78;146617;577;46010;-71
2023/04/03 11:23:40;;;;;;;;;12.75;10.00;;;;;15.82;72.92;99427.41;146616;655;46914;-71
2023/04/03 11:26:32;;;;;;;;;8.50;6.75;;;;;15.97;76.91;99435.41;146704;570;46014;-73
2023/04/03 11:29:46;;;;;;;;;11.50;8.50;;;;;15.99;75.96;99432.81;146622;664;46013;-72
2023/04/03 11:33:10;;;;;;;;;9.75;7.00;;;;;15.99;73.31;99411.91;146626;661;45020;-72
2023/04/03 11:36:30;;;;;;;;;7.75;5.50;;;;;15.99;74.32;99417.13;146619;696;46016;-71
2023/04/03 11:39:58;;;;;;;;;3.00;2.00;;;;;16.03;71.97;99408.44;146620;586;46020;-71
2023/04/03 11:43:35;;;;;;;;;9.75;8.00;;;;;16.08;75.15;99430.28;146620;593;46012;-72
2023/04/03 11:47:13;;;;;;;;;13.25;12.00;;;;;16.06;75.71;99416.31;146620;592;46021;-72
2023/04/03 11:50:29;;;;;;;;;10.00;8.25;;;;;16.04;75.69;99416.28;146614;571;46018;-72
2023/04/03 11:53:45;;;;;;;;;5.00;4.00;;;;;16.02;73.08;99420.63;146624;564;46010;-72
2023/04/03 11:57:16;;;;;;;;;7.50;5.00;;;;;15.43;73.16;99322.53;146621;578;46012;-71
2023/04/03 12:00:56;;;;;;;;;1.00;1.00;;;;;16.01;72.41;99403.22;146623;592;46021;-73
2023/04/03 12:04:13;;;;;;;;;5.00;3.33;;;;;16.09;72.21;99380.59;146622;602;46012;-73
2023/04/03 12:07:23;;;;;;;;;5.00;3.33;;;;;16.17;72.07;99389.38;146623;621;46020;-73
2023/04/03 12:10:28;;;;;;;;;5.67;3.00;;;;;16.14;70.59;99409.41;146618;575;46012;-72
2023/04/03 12:14:24;;;;;;;;;3.75;1.75;;;;;16.17;71.39;99410.31;146620;588;46021;-73
2023/04/03 12:17:51;;;;;;;;;;;;;;;;;;;;;
2023/04/03 12:21:59;;;;;;;;;;;;;;;;;;;;;
2023/04/03 12:25:21;;;;;;;;;5.25;2.75;;;;;16.11;74.42;99451.22;146620;715;46016;-71
2023/04/03 12:29:02;;;;;;;;;3.00;2.00;;;;;16.05;72.31;99457.28;146636;566;46010;-72
2023/04/03 12:32:46;;;;;;;;;1.00;1.00;;;;;15.99;72.54;99517.34;146628;624;46012;-72
2023/04/03 12:36:07;;;;;;;;;0.00;0.00;;;;;15.12;73.25;99493.66;146630;575;46010;-73
2023/04/03 12:39:31;;;;;;;;;0.67;0.00;;;;;14.78;72.57;99541.91;146620;588;46012;-72
2023/04/03 12:43:14;;;;;;;;;0.00;0.00;;;;;14.24;80.83;99522.75;146631;576;46013;-73
2023/04/03 12:46:37;;;;;;;;;2.00;0.67;;;;;13.72;84.22;99513.97;146628;620;46012;-72
2023/04/03 12:49:55;;;;;;;;;0.00;0.00;;;;;13.39;86.63;99503.75;146624;573;46020;-73
2023/04/03 12:53:29;;;;;;;;;;;;;;;;;;;;;
2023/04/03 12:56:53;;;;;;;;;0.00;0.00;;;;;12.98;88.26;99448.22;146632;616;46010;-71
2023/04/03 13:00:25;;;;;;;;;0.00;0.00;;;;;13.05;88.22;99450.09;146626;579;46016;-70
2023/04/03 13:03:53;;;;;;;;;0.00;0.00;;;;;11.87;84.21;99226.59;146631;593;46020;-71
2023/04/03 13:07:05;;;;;;;;;0.00;0.00;;;;;12.03;82.88;99210.50;146629;565;45028;-72
2023/04/03 13:09:46;;;;;;;;;0.00;0.00;;;;;13.38;81.08;99432.59;146705;566;46014;-71
2023/04/03 13:13:11;;;;;;;;;0.00;0.00;;;;;13.50;81.40;99413.72;146623;597;46012;-71
2023/04/03 13:16:24;;;;;;;;;0.00;0.00;;;;;13.53;80.97;99372.09;146621;582;46021;-72
2023/04/03 13:19:24;;;;;;;;;0.00;0.00;;;;;13.57;81.79;99323.56;146620;595;46012;-70
2023/04/03 13:22:55;;;;;;;;;0.00;0.00;;;;;13.56;82.98;99294.03;146622;566;47010;-72
2023/04/03 13:26:12;;;;;;;;;0.00;0.00;;;;;13.60;83.65;99266.31;146614;593;47016;-70
2023/04/03 13:29:45;;;;;;;;;0.00;0.00;;;;;13.11;80.26;99141.41;146620;707;46021;-70
2023/04/03 13:32:43;;;;;;;;;0.00;0.00;;;;;13.93;73.21;99236.41;146621;590;46012;-70
2023/04/03 13:35:52;;;;;;;;;0.75;0.00;;;;;14.15;72.88;99238.44;146622;607;46020;-69
2023/04/03 13:39:01;;;;;;;;;0.00;0.00;;;;;14.32;72.84;99205.63;146619;564;46016;-71
2023/04/03 13:42:02;;;;;;;;;0.00;0.00;;;;;14.39;69.30;99224.84;146622;563;46012;-71
2023/04/03 13:45:39;;;;;;;;;0.00;0.00;;;;;14.52;69.45;99195.47;146617;575;46016;-73
2023/04/03 13:48:59;;;;;;;;;0.00;0.00;;;;;14.63;67.59;99152.97;146624;592;46020;-71
2023/04/03 13:52:25;;;;;;;;;0.00;0.00;;;;;14.70;67.75;99155.66;146622;623;46016;-71
2023/04/03 13:55:36;;;;;;;;;0.00;0.00;;;;;14.81;66.22;99170.53;146622;646;46020;-72
2023/04/03 13:58:40;;;;;;;;;0.00;0.00;;;;;14.92;67.48;99166.25;146619;622;46016;-72
2023/04/03 14:02:03;;;;;;;;;0.00;0.00;;;;;15.03;67.43;99154.19;146624;646;46010;-72
2023/04/03 14:05:03;;;;;;;;;0.00;0.00;;;;;15.06;63.63;99164.66;146619;633;46917;-71
2023/04/03 14:08:13;;;;;;;;;0.75;0.00;;;;;15.17;63.48;99186.50;146621;696;46020;-71
2023/04/03 14:11:09;;;;;;;;;0.00;0.00;;;;;15.28;60.22;99193.56;146618;563;46012;-73
2023/04/03 14:14:21;;;;;;;;;1.00;0.00;;;;;15.46;61.94;99210.22;146621;587;46021;-72
2023/04/03 14:17:29;;;;;;;;;1.00;0.00;;;;;15.46;61.32;99228.50;146620;658;46012;-71
2023/04/03 14:20:33;;;;;;;;;1.00;0.00;;;;;15.53;63.17;99280.81;146621;587;47010;-71
2023/04/03 14:23:27;;;;;;;;;0.00;0.00;;;;;15.44;61.68;99297.28;146620;611;46016;-72
2023/04/03 14:26:30;;;;;;;;;0.00;0.00;;;;;15.45;62.86;99299.91;146625;565;46010;-72
2023/04/03 14:29:47;;;;;;;;;0.33;0.00;;;;;15.09;63.43;99203.84;146619;579;46012;-75
2023/04/03 14:33:00;;;;;;;;;0.75;0.75;;;;;15.43;63.91;99262.44;146623;597;46010;-71
2023/04/03 14:35:58;;;;;;;;;2.25;1.00;;;;;15.42;64.00;99262.41;146615;665;46013;-71
2023/04/03 14:38:58;;;;;;;;;1.00;0.00;;;;;15.39;63.20;99272.84;146619;577;47010;-73
2023/04/03 14:42:04;;;;;;;;;2.00;2.00;;;;;15.33;63.31;99284.13;146620;690;46012;-73
2023/04/03 14:45:15;;;;;;;;;;;;;;;;;;;;;
2023/04/03 14:48:28;;;;;;;;;1.00;1.00;;;;;15.23;63.44;99272.72;146619;728;46014;-73
2023/04/03 14:51:24;;;;;;;;;0.00;0.00;;;;;15.25;65.04;99273.59;146623;633;46010;-73
2023/04/03 14:54:38;;;;;;;;;1.00;1.00;;;;;15.25;64.03;99257.94;146613;571;47944;-73
2023/04/03 14:57:53;;;;;;;;;0.25;0.00;;;;;15.24;64.02;99250.97;146621;655;46021;-71
2023/04/03 15:00:46;;;;;;;;;2.00;0.00;;;;;15.18;65.04;99250.91;146712;564;46012;-74